Theodore Roosevelt National Park, ND

8:14 PM MDT en Septiembre 02, 2014 (GMT -0600)
Dickinson Municipal | Change Station
CLOSE
Current Station
Aeropuerto
Location: Dickinson,
Altura: 2592 ft
Estaciones meteorológicas cercanas

Alt 2592 ft 46.80 °N, 102.80 °W | Updated 18 minutes ago

Clear
Despejado
62 ° F
Sensación térmica 62 ° F
N
5
Viento Variable Viento desde Oeste

Hoy
Alta -- | Baja -- ° F
--% Posibilidad de precipitaciones
Ayer
Alta -- | Baja -- ° F
Precip. -- pul
6:12 AM 7:28 PM
Cuarto creciente, 57% visible
Presión 29.76 pul
Visibilidad 10.0 Millas
Nubes Despejado
Punto de rocío 47 ° F
Humedad 58%
Precipitaciones 0.00 pul
Espesor de la nieve No disponible.
UV 0 de una escala de 12
Polen 9.40 de una escala de 12
Calidad del aire No disponible.
Flu Activity No disponible.
METAR KDIK 030156Z AUTO 28004KT 10SM CLR 17/08 A2978 RMK AO2 SLP077 T01670083

More Conditions Fewer Conditions

Presión 29.76 pul
Visibilidad 10.0 Millas
Nubes Despejado
Punto de rocío 47 ° F
Humedad 58%
Precipitaciones 0.00 pul
Espesor de la nieve No disponible.
UV 0 de una escala de 12
Polen 9.40 de una escala de 12
Calidad del aire No disponible.
Flu Activity No disponible.
METAR KDIK 030156Z AUTO 28004KT 10SM CLR 17/08 A2978 RMK AO2 SLP077 T01670083

More Conditions Fewer Conditions

10-Day Weather Forecast

Almanac

Astronomía

Sep. 02, 2014 Salida Puesta
Hora real 6:12 AM MDT 7:28 PM MDT
Crepúsculo civil 5:40 AM MDT 7:59 PM MDT
Crepúsculo náutico 5:02 AM MDT 8:37 PM MDT
Crepúsculo astronómico 4:22 AM MDT 9:17 PM MDT
Luna 2:25 PM MDT (9/2) 11:57 PM MDT (9/2)
Horas de luz 14h 19m
Horas de luz
13h 16m
Tomorrow will be 3m 14s shorter.
Cuarto creciente, 57% of the Moon is Illuminated
Hoy
Cuarto creciente
Sep 8
Luna llena
Sep 15
Cuarto menguante
Sep 24
Nueva
Oct 1
Cuarto creciente

Extremos de hoy

Máximos del estado Bajos del estado

Community

WunderPhotos

Upload Photos

1,749,841 ¡fotos cargadas!

Nearby

Grosos de nieve

Estación Profundido Altura
No tenemos constancia de nieve nueva.

Actividad de terremotos

Ciudad Distance Mag. Tiempo y dato
No hay informes recientes de la actividad sísmica.
Magnitud mínima muestra es 2,5.

Temperaturas de aguas costeras

Lugar Temperatura
Sin partes meteorológicos de las estaciones

Estaciones meteorológicas cercanas